createdAt,value
2023-06-21T00:00:32.555Z,5.95
2023-06-21T00:03:01.916Z,4.88
2023-06-21T00:05:28.350Z,4.70
2023-06-21T00:07:55.360Z,4.30
2023-06-21T00:10:24.513Z,5.28
2023-06-21T00:12:51.804Z,4.65
2023-06-21T00:15:18.283Z,4.80
2023-06-21T00:17:44.748Z,4.10
2023-06-21T00:20:11.804Z,4.43
2023-06-21T00:22:38.475Z,4.53
2023-06-21T00:25:05.278Z,4.50
2023-06-21T00:27:31.677Z,5.43
2023-06-21T00:29:58.051Z,5.03
2023-06-21T00:32:24.438Z,5.10
2023-06-21T00:34:50.905Z,4.72
2023-06-21T00:37:17.417Z,4.38
2023-06-21T00:39:43.800Z,4.63
2023-06-21T00:42:10.445Z,4.45
2023-06-21T00:44:37.309Z,5.15
2023-06-21T00:47:03.723Z,4.20
2023-06-21T00:49:30.148Z,4.97
2023-06-21T00:51:59.578Z,5.85
2023-06-21T00:54:32.686Z,4.78
2023-06-21T00:56:59.044Z,5.20
2023-06-21T00:59:28.702Z,4.97
2023-06-21T01:01:56.668Z,5.00
2023-06-21T01:04:24.004Z,4.50
2023-06-21T01:07:05.477Z,4.32
2023-06-21T01:09:44.374Z,4.90
2023-06-21T01:12:29.619Z,5.00
2023-06-21T01:14:58.145Z,4.90
2023-06-21T01:17:24.709Z,5.70
2023-06-21T01:19:52.404Z,4.60
2023-06-21T01:22:22.856Z,4.70
2023-06-21T01:25:08.179Z,4.82
2023-06-21T01:27:37.300Z,4.55
2023-06-21T01:30:04.175Z,4.15
2023-06-21T01:32:30.802Z,5.32
2023-06-21T01:34:57.378Z,5.68
2023-06-21T01:37:24.986Z,5.43
2023-06-21T01:39:51.917Z,5.63
2023-06-21T01:42:19.718Z,4.80
2023-06-21T01:44:46.605Z,4.70
2023-06-21T01:47:13.090Z,5.85
2023-06-21T01:49:39.442Z,5.65
2023-06-21T01:52:06.023Z,4.95
2023-06-21T01:54:32.425Z,5.75
2023-06-21T01:57:01.752Z,5.70
2023-06-21T01:59:29.105Z,5.50
2023-06-21T02:01:55.484Z,4.97
2023-06-21T02:04:21.942Z,4.47
2023-06-21T02:06:49.261Z,6.03
2023-06-21T02:09:15.662Z,5.45
2023-06-21T02:11:41.972Z,5.43
2023-06-21T02:14:08.498Z,5.50
2023-06-21T02:16:36.513Z,5.43
2023-06-21T02:19:03.313Z,6.03
2023-06-21T02:21:29.884Z,5.38
2023-06-21T02:23:56.362Z,6.32
2023-06-21T02:26:22.782Z,5.65
2023-06-21T02:28:49.101Z,6.07
2023-06-21T02:31:15.493Z,6.43
2023-06-21T02:33:50.071Z,5.35
2023-06-21T02:36:16.658Z,6.90
2023-06-21T02:38:42.997Z,6.40
2023-06-21T02:41:09.325Z,6.57
2023-06-21T02:43:35.700Z,6.45
2023-06-21T02:46:02.046Z,5.32
2023-06-21T02:48:28.434Z,5.70
2023-06-21T02:50:55.376Z,5.22
2023-06-21T02:53:21.726Z,4.88
2023-06-21T02:55:48.072Z,7.05
2023-06-21T02:58:14.552Z,6.00
2023-06-21T03:00:42.222Z,6.25
2023-06-21T03:03:08.704Z,5.45
2023-06-21T03:05:35.219Z,4.50
2023-06-21T03:08:01.702Z,5.85
2023-06-21T03:10:28.468Z,5.50
2023-06-21T03:12:56.098Z,5.97
2023-06-21T03:15:22.534Z,9.45
2023-06-21T03:17:49.419Z,6.97
2023-06-21T03:20:15.928Z,6.75
2023-06-21T03:22:45.254Z,6.50
2023-06-21T03:25:11.969Z,5.70
2023-06-21T03:27:38.393Z,6.90
2023-06-21T03:30:05.535Z,6.50
2023-06-21T03:32:31.978Z,6.97
2023-06-21T03:35:00.066Z,6.60
2023-06-21T03:37:27.337Z,5.93
2023-06-21T03:39:54.326Z,6.50
2023-06-21T03:42:20.791Z,6.07
2023-06-21T03:44:47.336Z,7.72
2023-06-21T03:47:13.677Z,6.72
2023-06-21T03:49:40.025Z,5.75
2023-06-21T03:52:06.929Z,5.60
2023-06-21T03:54:33.240Z,5.80
2023-06-21T03:56:59.695Z,5.88
2023-06-21T03:59:26.091Z,6.25
2023-06-21T04:01:53.731Z,6.20
2023-06-21T04:04:25.340Z,6.25
2023-06-21T04:06:52.506Z,6.32
2023-06-21T04:09:19.159Z,6.13
2023-06-21T04:11:46.410Z,7.05
2023-06-21T04:14:12.793Z,6.45
2023-06-21T04:16:39.167Z,7.55
2023-06-21T04:19:05.587Z,6.85
2023-06-21T04:21:31.908Z,7.00
2023-06-21T04:23:58.285Z,5.90
2023-06-21T04:26:24.668Z,7.43
2023-06-21T04:28:51.001Z,6.70
2023-06-21T04:31:17.421Z,8.10
2023-06-21T04:33:43.779Z,7.63
2023-06-21T04:36:10.192Z,7.00
2023-06-21T04:38:36.538Z,7.63
2023-06-21T04:41:02.890Z,7.72
2023-06-21T04:43:29.231Z,6.60
2023-06-21T04:45:55.594Z,6.63
2023-06-21T04:48:25.849Z,7.72
2023-06-21T04:50:52.335Z,7.50
2023-06-21T04:53:18.671Z,7.38
2023-06-21T04:55:45.061Z,6.38
2023-06-21T04:58:11.480Z,6.15
2023-06-21T05:00:37.991Z,7.07
2023-06-21T05:03:04.768Z,7.28
2023-06-21T05:05:33.623Z,7.22
2023-06-21T05:08:01.080Z,7.15
2023-06-21T05:10:27.617Z,7.20
2023-06-21T05:12:54.148Z,6.70
2023-06-21T05:15:20.583Z,7.88
2023-06-21T05:17:47.653Z,7.22
2023-06-21T05:20:15.816Z,7.35
2023-06-21T05:22:45.094Z,6.63
2023-06-21T05:25:11.523Z,6.25
2023-06-21T05:27:38.275Z,6.65
2023-06-21T05:30:05.133Z,6.97
2023-06-21T05:32:31.602Z,6.25
2023-06-21T05:34:57.942Z,7.13
2023-06-21T05:37:24.291Z,7.97
2023-06-21T05:39:50.684Z,7.72
2023-06-21T05:42:17.022Z,6.45
2023-06-21T05:44:43.338Z,6.32
2023-06-21T05:47:09.752Z,6.80
2023-06-21T05:49:36.107Z,6.90
2023-06-21T05:52:02.520Z,9.15
2023-06-21T05:54:29.012Z,6.47
2023-06-21T05:56:56.370Z,6.30
2023-06-21T05:59:22.721Z,6.00
2023-06-21T06:01:49.207Z,6.47
2023-06-21T06:04:15.774Z,5.50
2023-06-21T06:06:42.306Z,5.22
2023-06-21T06:09:09.079Z,5.25
2023-06-21T06:11:35.393Z,5.88
2023-06-21T06:14:01.751Z,5.63
2023-06-21T06:16:28.145Z,5.72
2023-06-21T06:18:54.445Z,5.72
2023-06-21T06:21:23.569Z,5.43
2023-06-21T06:23:51.012Z,5.88
2023-06-21T06:26:20.632Z,5.10
2023-06-21T06:28:46.933Z,6.38
2023-06-21T06:31:14.626Z,5.32
2023-06-21T06:33:40.985Z,5.60
2023-06-21T06:36:07.379Z,5.55
2023-06-21T06:38:33.723Z,6.18
2023-06-21T06:41:00.828Z,5.70
2023-06-21T06:43:27.174Z,5.25
2023-06-21T06:45:53.563Z,5.63
2023-06-21T06:48:19.888Z,6.05
2023-06-21T06:50:46.266Z,6.10
2023-06-21T06:53:12.673Z,5.75
2023-06-21T06:55:39.068Z,6.35
2023-06-21T06:58:06.362Z,5.28
2023-06-21T07:00:33.142Z,5.88
2023-06-21T07:02:59.596Z,6.20
2023-06-21T07:05:26.225Z,5.65
2023-06-21T07:07:53.521Z,6.05
2023-06-21T07:10:22.827Z,5.82
2023-06-21T07:12:49.379Z,5.72
2023-06-21T07:15:15.786Z,5.80
2023-06-21T07:17:42.166Z,5.32
2023-06-21T07:20:09.523Z,5.65
2023-06-21T07:22:36.550Z,5.30
2023-06-21T07:25:03.128Z,5.63
2023-06-21T07:27:30.672Z,5.80
2023-06-21T07:29:57.146Z,5.63
2023-06-21T07:32:23.468Z,6.82
2023-06-21T07:34:49.791Z,5.90
2023-06-21T07:37:16.127Z,6.05
2023-06-21T07:39:53.602Z,5.75
2023-06-21T07:42:21.772Z,5.55
2023-06-21T07:44:48.161Z,5.82
2023-06-21T07:47:14.730Z,5.80
2023-06-21T07:49:41.136Z,6.93
2023-06-21T07:52:07.476Z,6.97
2023-06-21T07:54:33.840Z,4.68
2023-06-21T07:57:00.194Z,5.60
2023-06-21T07:59:26.513Z,4.90
2023-06-21T08:01:52.904Z,5.30
2023-06-21T08:04:19.365Z,5.03
2023-06-21T08:06:45.705Z,5.38
2023-06-21T08:09:12.015Z,5.35
2023-06-21T08:11:38.376Z,5.60
2023-06-21T08:14:04.734Z,5.22
2023-06-21T08:16:31.423Z,5.72
2023-06-21T08:18:57.887Z,5.45
2023-06-21T08:21:24.249Z,5.57
2023-06-21T08:23:50.630Z,5.65
2023-06-21T08:26:17.113Z,5.97
2023-06-21T08:28:45.192Z,5.10
2023-06-21T08:31:11.540Z,5.68
2023-06-21T08:33:37.923Z,5.32
2023-06-21T08:36:07.308Z,4.30
2023-06-21T08:38:34.127Z,5.05
2023-06-21T08:41:03.299Z,5.15
2023-06-21T08:43:29.729Z,5.05
2023-06-21T08:45:56.551Z,5.10
2023-06-21T08:48:23.265Z,5.78
2023-06-21T08:50:49.834Z,5.03
2023-06-21T08:53:19.009Z,5.50
2023-06-21T08:55:45.380Z,4.40
2023-06-21T08:58:13.531Z,5.40
2023-06-21T09:00:42.113Z,4.20
2023-06-21T09:03:17.043Z,4.43
2023-06-21T09:05:47.479Z,4.95
2023-06-21T09:08:15.503Z,5.22
2023-06-21T09:10:42.024Z,5.05
2023-06-21T09:13:08.449Z,4.63
2023-06-21T09:15:35.321Z,4.70
2023-06-21T09:18:02.563Z,4.90
2023-06-21T09:20:30.342Z,5.05
2023-06-21T09:22:57.724Z,5.60
2023-06-21T09:25:24.244Z,4.57
2023-06-21T09:27:52.371Z,4.80
2023-06-21T09:30:36.561Z,4.72
2023-06-21T09:33:04.270Z,5.00
2023-06-21T09:35:30.636Z,4.90
2023-06-21T09:37:56.988Z,5.28
2023-06-21T09:40:23.398Z,4.40
2023-06-21T09:42:49.743Z,5.70
2023-06-21T09:45:19.307Z,5.10
2023-06-21T09:47:45.677Z,5.18
2023-06-21T09:50:12.682Z,4.80
2023-06-21T09:52:45.205Z,5.38
2023-06-21T09:55:14.930Z,5.05
2023-06-21T09:57:41.268Z,4.95
2023-06-21T10:00:08.355Z,4.35
2023-06-21T10:02:38.500Z,4.70
2023-06-21T10:05:05.061Z,4.82
2023-06-21T10:07:31.423Z,4.85
2023-06-21T10:09:58.154Z,4.82
2023-06-21T10:12:24.536Z,5.00
2023-06-21T10:14:51.478Z,4.50
2023-06-21T10:17:17.900Z,4.13
2023-06-21T10:19:46.373Z,4.90
2023-06-21T10:22:15.569Z,4.40
2023-06-21T10:24:48.047Z,4.57
2023-06-21T10:27:14.416Z,4.95
2023-06-21T10:29:43.757Z,4.63
2023-06-21T10:32:10.418Z,4.38
2023-06-21T10:34:56.997Z,5.22
2023-06-21T10:37:23.620Z,4.47
2023-06-21T10:40:01.908Z,4.72
2023-06-21T10:42:36.579Z,4.68
2023-06-21T10:45:03.453Z,4.80
2023-06-21T10:47:29.796Z,4.43
2023-06-21T10:49:59.212Z,4.38
2023-06-21T10:52:26.589Z,4.55
2023-06-21T10:54:54.466Z,6.30
2023-06-21T10:57:20.923Z,4.10
2023-06-21T10:59:47.254Z,4.05
2023-06-21T11:02:13.602Z,5.00
2023-06-21T11:04:58.517Z,4.43
2023-06-21T11:07:25.172Z,4.22
2023-06-21T11:09:53.470Z,5.05
2023-06-21T11:12:19.851Z,4.07
2023-06-21T11:14:46.176Z,5.38
2023-06-21T11:17:13.724Z,4.53
2023-06-21T11:19:40.245Z,5.05
2023-06-21T11:22:16.422Z,5.53
2023-06-21T11:24:49.950Z,5.45
2023-06-21T11:27:16.287Z,5.20
2023-06-21T11:29:42.786Z,5.25
2023-06-21T11:32:12.972Z,6.93
2023-06-21T11:34:54.579Z,5.45
2023-06-21T11:37:42.605Z,5.57
2023-06-21T11:40:10.383Z,5.68
2023-06-21T11:42:37.474Z,5.35
2023-06-21T11:45:16.691Z,5.45
2023-06-21T11:47:45.523Z,7.32
2023-06-21T11:50:14.133Z,6.68
2023-06-21T11:52:40.629Z,5.95
2023-06-21T11:55:14.336Z,6.32
2023-06-21T11:57:44.555Z,5.93
2023-06-21T12:00:11.315Z,5.38
2023-06-21T12:02:37.668Z,6.13
2023-06-21T12:05:04.788Z,5.85
2023-06-21T12:07:31.338Z,6.75
2023-06-21T12:09:57.764Z,5.72
2023-06-21T12:12:25.620Z,6.50
2023-06-21T12:14:51.959Z,6.15
2023-06-21T12:17:21.281Z,6.63
2023-06-21T12:19:47.729Z,6.28
2023-06-21T12:22:15.254Z,5.80
2023-06-21T12:24:41.660Z,6.72
2023-06-21T12:27:08.011Z,6.75
2023-06-21T12:29:34.340Z,6.15
2023-06-21T12:32:00.728Z,5.30
2023-06-21T12:34:27.280Z,9.65
2023-06-21T12:36:55.471Z,6.68
2023-06-21T12:39:22.864Z,6.72
2023-06-21T12:41:49.517Z,7.25
2023-06-21T12:44:20.194Z,6.78
2023-06-21T12:46:46.778Z,7.63
2023-06-21T12:49:14.429Z,6.38
2023-06-21T12:51:40.806Z,7.10
2023-06-21T12:54:07.138Z,7.07
2023-06-21T12:56:34.348Z,7.78
2023-06-21T12:59:00.771Z,6.18
2023-06-21T13:01:29.632Z,6.93
2023-06-21T13:03:56.253Z,6.75
2023-06-21T13:06:22.832Z,7.10
2023-06-21T13:08:49.200Z,7.18
2023-06-21T13:11:15.609Z,6.38
2023-06-21T13:13:42.868Z,6.82
2023-06-21T13:16:11.474Z,6.05
2023-06-21T13:18:37.919Z,7.75
2023-06-21T13:21:04.333Z,6.38
2023-06-21T13:23:30.890Z,6.03
2023-06-21T13:25:57.891Z,6.65
2023-06-21T13:28:24.476Z,6.18
2023-06-21T13:30:50.931Z,6.55
2023-06-21T13:33:17.515Z,6.70
2023-06-21T13:35:43.869Z,6.05
2023-06-21T13:38:10.761Z,6.45
2023-06-21T13:40:37.517Z,6.72
2023-06-21T13:43:03.881Z,7.13
2023-06-21T13:45:30.304Z,6.68
2023-06-21T13:47:57.004Z,5.82
2023-06-21T13:50:23.438Z,6.32
2023-06-21T13:52:49.778Z,5.78
2023-06-21T13:55:16.213Z,5.45
2023-06-21T13:57:42.593Z,5.70
2023-06-21T14:00:14.901Z,4.82
2023-06-21T14:02:44.362Z,4.63
2023-06-21T14:05:10.941Z,5.20
2023-06-21T14:07:37.771Z,3.95
2023-06-21T14:10:04.545Z,5.32
2023-06-21T14:12:30.860Z,4.43
2023-06-21T14:14:57.321Z,4.25
2023-06-21T14:17:24.018Z,4.80
2023-06-21T14:19:50.569Z,4.25
2023-06-21T14:22:17.835Z,4.50
2023-06-21T14:24:44.436Z,4.10
2023-06-21T14:27:10.784Z,4.45
2023-06-21T14:29:37.097Z,4.68
2023-06-21T14:32:03.566Z,3.40
2023-06-21T14:34:29.899Z,4.07
2023-06-21T14:36:58.102Z,4.00
2023-06-21T14:39:24.551Z,3.58
2023-06-21T14:41:50.892Z,3.28
2023-06-21T14:44:18.137Z,3.35
2023-06-21T14:46:44.672Z,3.63
2023-06-21T14:49:12.844Z,3.45
2023-06-21T14:51:40.590Z,3.67
2023-06-21T14:54:08.492Z,2.97
2023-06-21T14:56:34.974Z,3.20
2023-06-21T14:59:01.411Z,3.25
2023-06-21T15:01:27.895Z,3.45
2023-06-21T15:03:54.355Z,3.13
2023-06-21T15:06:20.698Z,3.25
2023-06-21T15:08:47.120Z,3.85
2023-06-21T15:11:13.474Z,4.07
2023-06-21T15:13:40.523Z,3.35
2023-06-21T15:16:07.466Z,4.10
2023-06-21T15:18:34.268Z,3.17
2023-06-21T15:21:00.715Z,3.05
2023-06-21T15:23:27.186Z,3.33
2023-06-21T15:25:53.537Z,3.65
2023-06-21T15:28:19.866Z,3.13
2023-06-21T15:30:46.432Z,3.20
2023-06-21T15:33:12.858Z,3.28
2023-06-21T15:35:39.256Z,3.33
2023-06-21T15:38:05.643Z,3.72
2023-06-21T15:40:31.978Z,3.40
2023-06-21T15:42:58.429Z,3.63
2023-06-21T15:45:25.046Z,3.47
2023-06-21T15:47:51.606Z,3.47
2023-06-21T15:50:18.064Z,3.40
2023-06-21T15:52:44.478Z,3.58
2023-06-21T15:55:11.207Z,3.17
2023-06-21T15:57:37.610Z,3.42
2023-06-21T16:00:04.381Z,3.75
2023-06-21T16:02:30.878Z,3.70
2023-06-21T16:04:57.307Z,3.78
2023-06-21T16:07:23.829Z,3.50
2023-06-21T16:09:50.241Z,3.45
2023-06-21T16:12:16.569Z,3.53
2023-06-21T16:14:42.926Z,3.53
2023-06-21T16:17:09.384Z,3.35
2023-06-21T16:19:36.866Z,3.47
2023-06-21T16:22:03.534Z,4.20
2023-06-21T16:24:29.887Z,3.33
2023-06-21T16:26:57.007Z,3.53
2023-06-21T16:29:23.444Z,3.10
2023-06-21T16:31:51.015Z,3.20
2023-06-21T16:34:17.508Z,4.25
2023-06-21T16:36:43.880Z,3.50
2023-06-21T16:39:11.636Z,3.38
2023-06-21T16:41:37.944Z,3.22
2023-06-21T16:44:04.361Z,3.67
2023-06-21T16:46:30.850Z,3.38
2023-06-21T16:48:57.339Z,3.53
2023-06-21T16:51:25.589Z,4.63
2023-06-21T16:53:52.314Z,4.20
2023-06-21T16:56:24.104Z,3.17
2023-06-21T16:58:50.926Z,3.35
2023-06-21T17:01:17.348Z,3.45
2023-06-21T17:03:44.077Z,5.40
2023-06-21T17:06:10.602Z,4.15
2023-06-21T17:08:36.999Z,3.20
2023-06-21T17:11:03.366Z,3.90
2023-06-21T17:13:29.731Z,3.90
2023-06-21T17:15:59.172Z,3.78
2023-06-21T17:18:25.620Z,3.75
2023-06-21T17:20:51.946Z,3.28
2023-06-21T17:23:18.277Z,3.78
2023-06-21T17:25:44.749Z,3.60
2023-06-21T17:28:11.077Z,3.90
2023-06-21T17:30:37.453Z,3.47
2023-06-21T17:33:04.356Z,3.60
2023-06-21T17:35:31.067Z,3.65
2023-06-21T17:37:57.598Z,3.47
2023-06-21T17:40:23.953Z,3.65
2023-06-21T17:42:50.358Z,3.60
2023-06-21T17:45:16.740Z,3.60
2023-06-21T17:47:43.319Z,3.15
2023-06-21T17:50:11.367Z,3.83
2023-06-21T17:52:37.707Z,3.88
2023-06-21T17:55:04.214Z,3.78
2023-06-21T17:57:30.562Z,3.70
2023-06-21T17:59:56.916Z,3.13
2023-06-21T18:02:23.455Z,3.60
2023-06-21T18:04:49.920Z,3.72
2023-06-21T18:07:16.369Z,3.80
2023-06-21T18:09:42.729Z,3.60
2023-06-21T18:12:10.829Z,3.92
2023-06-21T18:14:37.465Z,3.40
2023-06-21T18:17:03.992Z,3.50
2023-06-21T18:19:30.340Z,3.38
2023-06-21T18:22:07.369Z,3.90
2023-06-21T18:24:39.303Z,3.50
2023-06-21T18:27:05.808Z,3.38
2023-06-21T18:29:32.148Z,3.63
2023-06-21T18:31:58.654Z,4.10
2023-06-21T18:34:25.191Z,3.78
2023-06-21T18:36:51.750Z,3.83
2023-06-21T18:39:18.181Z,4.00
2023-06-21T18:41:44.509Z,3.45
2023-06-21T18:44:10.826Z,4.00
2023-06-21T18:46:37.271Z,4.60
2023-06-21T18:49:03.578Z,4.13
2023-06-21T18:51:29.899Z,3.97
2023-06-21T18:53:57.355Z,4.78
2023-06-21T18:56:25.542Z,5.00
2023-06-21T18:58:56.004Z,4.35
2023-06-21T19:01:23.668Z,4.32
2023-06-21T19:03:57.382Z,4.95
2023-06-21T19:06:25.029Z,5.07
2023-06-21T19:08:51.351Z,7.15
2023-06-21T19:11:17.687Z,5.32
2023-06-21T19:13:45.524Z,5.35
2023-06-21T19:16:14.922Z,4.75
2023-06-21T19:18:41.775Z,4.28
2023-06-21T19:21:08.191Z,4.30
2023-06-21T19:23:34.515Z,4.90
2023-06-21T19:26:00.841Z,4.18
2023-06-21T19:28:27.252Z,4.78
2023-06-21T19:30:53.848Z,5.25
2023-06-21T19:33:20.290Z,4.53
2023-06-21T19:35:46.749Z,5.22
2023-06-21T19:38:13.079Z,4.90
2023-06-21T19:40:44.295Z,4.93
2023-06-21T19:43:13.552Z,5.13
2023-06-21T19:45:40.032Z,5.13
2023-06-21T19:48:06.832Z,15.45
2023-06-21T19:50:33.346Z,32.67
2023-06-21T19:52:59.672Z,21.92
2023-06-21T19:55:26.014Z,15.10
2023-06-21T19:57:52.385Z,13.38
2023-06-21T20:00:18.862Z,8.82
2023-06-21T20:02:45.357Z,8.35
2023-06-21T20:05:11.933Z,6.55
2023-06-21T20:07:38.333Z,6.43
2023-06-21T20:10:04.863Z,5.90
2023-06-21T20:12:31.244Z,5.43
2023-06-21T20:14:57.679Z,6.10
2023-06-21T20:17:24.035Z,6.00
2023-06-21T20:19:50.499Z,5.07
2023-06-21T20:22:17.713Z,5.13
2023-06-21T20:24:44.044Z,5.18
2023-06-21T20:27:10.507Z,6.00
2023-06-21T20:29:36.932Z,5.50
2023-06-21T20:32:05.554Z,5.50
2023-06-21T20:34:31.993Z,5.43
2023-06-21T20:36:58.331Z,6.07
2023-06-21T20:39:24.645Z,5.40
2023-06-21T20:41:50.982Z,5.90
2023-06-21T20:44:17.355Z,5.22
2023-06-21T20:46:44.079Z,5.47
2023-06-21T20:49:10.482Z,6.18
2023-06-21T20:51:36.802Z,5.53
2023-06-21T20:54:03.225Z,5.88
2023-06-21T20:56:29.687Z,6.20
2023-06-21T20:58:56.629Z,5.95
2023-06-21T21:01:23.315Z,6.45
2023-06-21T21:03:49.860Z,6.03
2023-06-21T21:06:16.249Z,6.38
2023-06-21T21:08:42.646Z,6.10
2023-06-21T21:11:12.512Z,6.38
2023-06-21T21:13:39.487Z,6.03
2023-06-21T21:16:05.900Z,5.93
2023-06-21T21:18:32.572Z,6.40
2023-06-21T21:20:58.947Z,5.85
2023-06-21T21:23:25.274Z,6.05
2023-06-21T21:25:51.677Z,7.07
2023-06-21T21:28:17.986Z,6.57
2023-06-21T21:30:44.442Z,6.90
2023-06-21T21:33:10.901Z,7.60
2023-06-21T21:35:37.481Z,6.72
2023-06-21T21:38:07.171Z,6.20
2023-06-21T21:40:33.943Z,6.97
2023-06-21T21:43:00.812Z,7.35
2023-06-21T21:45:27.190Z,7.07
2023-06-21T21:47:53.612Z,6.57
2023-06-21T21:50:20.041Z,6.95
2023-06-21T21:52:46.424Z,6.40
2023-06-21T21:55:14.723Z,6.57
2023-06-21T21:57:41.078Z,6.25
2023-06-21T22:00:11.846Z,7.03
2023-06-21T22:02:41.410Z,7.60
2023-06-21T22:05:08.005Z,6.65
2023-06-21T22:07:34.334Z,7.65
2023-06-21T22:10:02.677Z,7.72
2023-06-21T22:12:29.031Z,6.35
2023-06-21T22:14:55.357Z,6.30
2023-06-21T22:17:22.988Z,6.45
2023-06-21T22:19:49.427Z,6.20
2023-06-21T22:22:18.497Z,5.68
2023-06-21T22:24:45.151Z,5.68
2023-06-21T22:27:11.490Z,6.32
2023-06-21T22:29:37.823Z,6.45
2023-06-21T22:32:04.369Z,8.10
2023-06-21T22:34:30.687Z,8.40
2023-06-21T22:36:57.317Z,6.03
2023-06-21T22:39:24.727Z,8.88
2023-06-21T22:41:51.529Z,8.25
2023-06-21T22:44:17.890Z,7.13
2023-06-21T22:46:44.250Z,8.57
2023-06-21T22:49:10.571Z,7.78
2023-06-21T22:51:37.669Z,7.38
2023-06-21T22:54:04.707Z,7.55
2023-06-21T22:56:31.156Z,6.72
2023-06-21T22:58:57.581Z,6.75
2023-06-21T23:01:23.995Z,7.72
2023-06-21T23:03:50.608Z,7.43
2023-06-21T23:06:18.199Z,8.30
2023-06-21T23:08:44.797Z,7.40
2023-06-21T23:11:14.974Z,8.30
2023-06-21T23:13:41.400Z,6.93
2023-06-21T23:16:10.318Z,7.20
2023-06-21T23:18:36.973Z,6.93
2023-06-21T23:21:03.768Z,7.53
2023-06-21T23:23:30.716Z,7.07
2023-06-21T23:26:00.335Z,7.72
2023-06-21T23:28:29.799Z,7.43
2023-06-21T23:30:58.125Z,7.20
2023-06-21T23:33:35.006Z,7.63
2023-06-21T23:36:04.717Z,7.53
2023-06-21T23:38:34.510Z,7.18
2023-06-21T23:41:00.998Z,6.40
2023-06-21T23:43:30.292Z,6.93
2023-06-21T23:46:05.878Z,6.93
2023-06-21T23:48:33.709Z,8.40
2023-06-21T23:51:00.755Z,6.30
2023-06-21T23:53:27.712Z,6.60
2023-06-21T23:55:54.650Z,8.05
2023-06-21T23:58:20.988Z,6.50
